• Join FlightAware (Why Join?)
  • Login
  • US Flag 
01:07PM EDT


 

Airport Tracker/Info


-or-


 

Live Flight TrackerFlight Track Log ✈ EJA372 ✈ 07-May-2013 ✈ KPWK - KMSP

Flight Track Log - Related Links

Times and Time Zones

All times are in EDT time to prevent confusion due to time zone crossing. See the EJA372 flight status page for this flight to view local times or setup timezone preferences in your user account.

Time Position Orientation Groundspeed Altitude Reporting Facility
EDT Latitude Longitude Course Direction KTS MPH feet Rate Location/Type
05:23PM 42.1333 -87.9333 289° West 192 221 2,200  Level Chicago TRACON
05:24PM 42.1500 -88.0000 289° West 216 249 3,300 2,160 Climbing Chicago TRACON
05:26PM 42.1575 -88.1047 276° West 241 277 7,000 3,600 Climbing Chicago Center
05:27PM 42.1492 -88.2083 264° West 273 314 11,300 3,480 Climbing Chicago Center
05:28PM 42.1419 -88.3289 265° West 308 354 14,300 3,840 Climbing Chicago Center
05:29PM 42.1328 -88.4883 266° West 350 403 19,300 3,840 Climbing Chicago Center
05:30PM 42.1228 -88.6281 265° West 369 425 22,300 2,820 Climbing Chicago Center
05:31PM 42.1128 -88.7739 265° West 387 445 25,200 2,700 Climbing Chicago Center
05:32PM 42.1053 -88.9336 266° West 403 464 27,900 2,400 Climbing Chicago Center
05:33PM 42.1008 -89.0886 268° West 411 473 30,200 1,980 Climbing Chicago Center
05:34PM 42.0950 -89.2797 268° West 435 501 32,100 1,560 Climbing Chicago Center
05:35PM 42.0931 -89.4458 269° West 443 510 33,500 900 Climbing Chicago Center
05:36PM 42.0919 -89.6206 270° West 462 532 34,000 240 Climbing Chicago Center
05:37PM 42.1028 -89.7911 275° West 457 526 34,000  Level Chicago Center
05:38PM 42.1358 -89.9653 284° West 463 533 34,000  Level Chicago Center
05:39PM 42.1653 -90.1289 284° West 456 525 34,000  Level Chicago Center
05:40PM 42.1953 -90.2911 284° West 451 519 34,000  Level Chicago Center
05:41PM 42.2239 -90.4483 284° West 438 504 34,000  Level Chicago Center
05:42PM 42.2569 -90.6333 284° West 427 491 34,000  Level Chicago Center
05:43PM 42.2839 -90.7856 284° West 422 486 34,000  Level Chicago Center
05:44PM 42.3097 -90.9342 283° West 412 474 34,000  Level Chicago Center
05:45PM 42.3361 -91.0833 284° West 411 473 34,000  Level Chicago Center
05:47PM 42.3914 -91.4106 283° West 407 468 34,000  Level Minneapolis Center
05:48PM 42.4172 -91.5578 283° West 406 467 34,000  Level Chicago Center
05:49PM 42.4425 -91.7044 283° West 402 463 34,000  Level Chicago Center
05:51PM 42.5003 -91.8328 301° West 405 466 34,000  Level Chicago Center
05:52PM 42.5789 -91.9442 314° West 409 471 34,000  Level Chicago Center
05:53PM 42.6567 -92.0531 314° West 403 464 34,000  Level Chicago Center
05:54PM 42.7492 -92.1842 314° West 402 463 34,000  Level Chicago Center
05:55PM 42.8258 -92.2942 314° West 401 461 34,000  Level Chicago Center
05:56PM 42.9019 -92.4033 314° West 400 460 34,000  Level Chicago Center
05:57PM 42.9783 -92.5114 314° West 399 459 34,000 -240 Level Chicago Center
05:58PM 43.0447 -92.5931 318° Northwest 407 468 33,600 -1,260 Descending Minneapolis Center
05:59PM 43.1903 -92.6956 333° Northwest 427 491 31,500 -2,160 Descending Minneapolis Center
06:00PM 43.2992 -92.7714 333° Northwest 439 505 29,200 -2,220 Descending Minneapolis Center
06:01PM 43.4044 -92.8458 333° Northwest 432 497 27,000 -2,160 Descending Minneapolis Center
06:02PM 43.5075 -92.9183 333° Northwest 422 486 24,800 -2,160 Descending Minneapolis Center
06:03PM 43.6058 -92.9914 332° Northwest 410 472 22,600 -2,280 Descending Minneapolis Center
06:04PM 43.7250 -93.0775 332° Northwest 407 468 20,100 -2,280 Descending Minneapolis Center
06:05PM 43.8275 -93.1500 333° Northwest 396 456 17,900 -2,040 Descending Minneapolis Center
06:06PM 43.9214 -93.2158 333° Northwest 385 443 15,900 -1,920 Descending Minneapolis Center
06:07PM 44.0164 -93.2431 348° North 362 417 14,000 -1,860 Descending Minneapolis Center
06:08PM 44.1147 -93.2331 North 357 411 12,100 -1,920 Descending Minneapolis Center
06:09PM 44.2106 -93.2233 North 348 400 10,100 -1,080 Descending Minneapolis Center
06:10PM 44.3050 -93.2192 North 342 394 9,900 -60 Descending Minneapolis Center
06:11PM 44.4208 -93.2381 353° North 348 400 10,000  Climbing Minneapolis Center
06:12PM 44.5344 -93.2325 North 341 392 10,000 -60 Level Minneapolis Center
06:13PM 44.6283 -93.2236 North 340 391 9,900 -780 Descending Minneapolis Center
06:15PM 44.7078 -93.2333 355° North 294 338 8,400 -960 Descending Minneapolis Center
06:16PM 44.7811 -93.2858 333° Northwest 285 328 8,000 -840 Descending Minneapolis Center
06:17PM 44.8203 -93.3753 302° West 267 307 6,700 -1,440 Descending Minneapolis Center
06:18PM 44.8594 -93.4661 301° West 270 311 5,100 -1,320 Descending Minneapolis Center
06:19PM 44.9303 -93.5261 329° Northwest 269 310 4,000 -540 Descending Minneapolis Center
06:20PM 44.9733 -93.4764 39° Northeast 230 265 4,000 -300 Level Minneapolis Center
06:21PM 44.9481 -93.3928 113° Southeast 230 265 3,500 -840 Descending Minneapolis Center
06:22PM 44.9250 -93.3203 114° Southeast 196 226 2,300 -1,020 Descending Minneapolis Center
06:23PM 44.9044 -93.2719 121° Southeast 150 173 1,500 -780 Descending Minneapolis Center
06:25PM 44.8820 -93.2218 North  Level Estimated
06:32PM 44.8820 -93.2218 North  Level Estimated